METAR Data
IDs: Format: Raw Decoded Include TAF

Data at: 0553 UTC 03 Jul 2022

METAR for:KSMS (Sumter Muni, SC, US)
Text:KSMS 030535Z AUTO 00000KT 10SM CLR 25/24 A3001 RMK AO2
Temperature: 25.0°C ( 77°F)
Dewpoint: 24.0°C ( 75°F) [RH = 94%]
Pressure (altimeter):30.01 inches Hg (1016.3 mb)
Winds:calm
Visibility:10 or more sm (16+ km)
Ceiling:at least 12,000 feet AGL
Clouds:sky clear below 12,000 feet AGL
QC Flag:automated observation with no human augmentation

TAF for:KSMS (Sumter Muni, SC, US)
Text:No data found